createdAt,value
2018-07-03T00:01:09.620Z,101453.86
2018-07-03T00:03:38.347Z,101445.89
2018-07-03T00:06:07.044Z,101444.70
2018-07-03T00:08:35.699Z,101438.65
2018-07-03T00:11:04.351Z,101446.95
2018-07-03T00:13:32.982Z,101446.03
2018-07-03T00:16:01.638Z,101440.72
2018-07-03T00:18:30.352Z,101437.08
2018-07-03T00:20:59.051Z,101436.30
2018-07-03T00:23:27.757Z,101432.41
2018-07-03T00:25:56.465Z,101401.68
2018-07-03T00:28:25.325Z,101431.70
2018-07-03T00:30:53.921Z,101432.31
2018-07-03T00:33:22.604Z,101431.09
2018-07-03T00:35:51.245Z,101428.60
2018-07-03T00:38:19.858Z,101433.16
2018-07-03T00:40:48.439Z,101431.84
2018-07-03T00:43:17.070Z,101427.34
2018-07-03T00:45:45.708Z,101425.23
2018-07-03T00:48:14.357Z,101425.54
2018-07-03T00:50:43.030Z,101423.16
2018-07-03T00:53:11.765Z,101426.39
2018-07-03T00:55:40.468Z,101420.47
2018-07-03T00:58:09.130Z,101420.30
2018-07-03T01:00:37.957Z,101417.34
2018-07-03T01:03:06.596Z,101407.27
2018-07-03T01:05:35.296Z,101411.05
2018-07-03T01:08:03.940Z,101410.56
2018-07-03T01:10:32.620Z,101409.13
2018-07-03T01:13:01.310Z,101404.67
2018-07-03T01:15:29.937Z,101399.16
2018-07-03T01:17:58.569Z,101393.72
2018-07-03T01:20:27.177Z,101391.33
2018-07-03T01:22:55.842Z,101397.02
2018-07-03T01:25:24.470Z,101395.52
2018-07-03T01:27:53.090Z,101396.92
2018-07-03T01:30:21.776Z,101395.48
2018-07-03T01:32:50.353Z,101387.52
2018-07-03T01:35:18.964Z,101387.16
2018-07-03T01:37:47.516Z,101389.56
2018-07-03T01:40:16.151Z,101381.78
2018-07-03T01:42:45.044Z,101379.80
2018-07-03T01:45:13.788Z,101372.45
2018-07-03T01:47:42.458Z,101378.03
2018-07-03T01:50:11.038Z,101382.02
2018-07-03T01:52:39.690Z,101373.34
2018-07-03T01:55:08.372Z,101365.45
2018-07-03T01:57:37.110Z,101359.42
2018-07-03T02:00:06.126Z,101360.27
2018-07-03T02:02:34.795Z,101360.30
2018-07-03T02:05:03.538Z,101359.83
2018-07-03T02:07:32.162Z,101362.14
2018-07-03T02:10:00.847Z,101361.53
2018-07-03T02:12:29.452Z,101362.75
2018-07-03T02:14:58.179Z,101360.95
2018-07-03T02:17:26.807Z,101357.71
2018-07-03T02:19:55.421Z,101353.97
2018-07-03T02:22:24.051Z,101350.52
2018-07-03T02:24:52.804Z,101350.17
2018-07-03T02:27:21.684Z,101345.13
2018-07-03T02:29:50.380Z,101353.22
2018-07-03T02:32:19.068Z,101345.42
2018-07-03T02:34:47.785Z,101344.56
2018-07-03T02:37:16.376Z,101332.85
2018-07-03T02:39:45.015Z,101331.58
2018-07-03T02:42:13.645Z,101332.67
2018-07-03T02:44:42.530Z,101332.25
2018-07-03T02:47:11.165Z,101331.64
2018-07-03T02:49:39.793Z,101333.59
2018-07-03T02:52:08.543Z,101329.84
2018-07-03T02:54:37.267Z,101329.52
2018-07-03T02:57:06.008Z,101324.84
2018-07-03T02:59:34.659Z,101319.80
2018-07-03T03:02:03.348Z,101314.16
2018-07-03T03:04:32.078Z,101307.52
2018-07-03T03:07:00.691Z,101304.30
2018-07-03T03:09:29.445Z,101301.77
2018-07-03T03:11:58.070Z,101306.12
2018-07-03T03:14:26.898Z,101297.78
2018-07-03T03:16:55.558Z,101296.31
2018-07-03T03:19:24.216Z,101293.64
2018-07-03T03:21:52.968Z,101288.04
2018-07-03T03:24:21.583Z,101282.80
2018-07-03T03:26:50.128Z,101269.52
2018-07-03T03:29:18.781Z,101265.13
2018-07-03T03:31:47.638Z,101265.44
2018-07-03T03:34:16.345Z,101268.11
2018-07-03T03:36:45.161Z,101265.73
2018-07-03T03:39:13.699Z,101264.40
2018-07-03T03:41:42.327Z,101262.73
2018-07-03T03:44:11.073Z,101258.16
2018-07-03T03:46:39.731Z,101256.27
2018-07-03T03:49:08.362Z,101247.56
2018-07-03T03:51:37.070Z,101251.48
2018-07-03T03:54:05.971Z,101249.97
2018-07-03T03:56:34.653Z,101246.86
2018-07-03T03:59:03.282Z,101244.78
2018-07-03T04:01:31.863Z,101243.41
2018-07-03T04:04:00.610Z,101243.44
2018-07-03T04:06:29.347Z,101243.31
2018-07-03T04:08:58.010Z,101242.73
2018-07-03T04:11:26.621Z,101244.78
2018-07-03T04:13:55.372Z,101250.90
2018-07-03T04:16:24.044Z,101243.45
2018-07-03T04:18:52.728Z,101241.87
2018-07-03T04:21:21.309Z,101240.37
2018-07-03T04:23:49.936Z,101048.88
2018-07-03T04:26:18.619Z,101227.64
2018-07-03T04:28:47.453Z,101220.55
2018-07-03T04:31:16.140Z,101229.42
2018-07-03T04:33:44.814Z,101225.67
2018-07-03T04:36:13.590Z,101224.81
2018-07-03T04:38:42.199Z,101224.77
2018-07-03T04:41:10.885Z,101227.92
2018-07-03T04:43:39.478Z,101224.38
2018-07-03T04:46:08.125Z,101218.33
2018-07-03T04:48:36.734Z,101221.69
2018-07-03T04:51:05.456Z,101218.34
2018-07-03T04:53:34.055Z,101213.97
2018-07-03T04:56:02.720Z,101213.43
2018-07-03T04:58:31.469Z,101220.25
2018-07-03T05:01:00.203Z,101222.22
2018-07-03T05:03:28.820Z,101226.87
2018-07-03T05:05:57.487Z,101223.55
2018-07-03T05:08:26.118Z,101215.88
2018-07-03T05:10:54.759Z,101210.06
2018-07-03T05:13:23.539Z,101216.77
2018-07-03T05:15:52.201Z,101215.38
2018-07-03T05:18:20.860Z,101209.80
2018-07-03T05:20:49.538Z,101218.39
2018-07-03T05:23:18.220Z,101211.25
2018-07-03T05:25:46.843Z,101209.98
2018-07-03T05:28:21.826Z,101207.84
2018-07-03T05:30:50.553Z,101200.83
2018-07-03T05:33:19.251Z,101201.19
2018-07-03T05:35:47.933Z,101199.64
2018-07-03T05:38:16.526Z,101196.05
2018-07-03T05:40:45.425Z,101197.93
2018-07-03T05:43:14.003Z,101191.45
2018-07-03T05:45:42.651Z,101193.33
2018-07-03T05:48:11.367Z,101193.54
2018-07-03T05:50:39.981Z,101201.97
2018-07-03T05:53:08.799Z,101186.17
2018-07-03T05:55:37.342Z,101182.45
2018-07-03T05:58:06.164Z,101181.16
2018-07-03T06:00:34.858Z,101175.47
2018-07-03T06:03:03.573Z,101174.31
2018-07-03T06:05:32.225Z,101165.73
2018-07-03T06:08:00.904Z,101163.61
2018-07-03T06:10:29.603Z,101160.59
2018-07-03T06:12:58.283Z,101165.58
2018-07-03T06:15:26.957Z,101158.50
2018-07-03T06:17:55.811Z,101159.50
2018-07-03T06:20:24.293Z,101160.82
2018-07-03T06:22:52.950Z,101150.55
2018-07-03T06:25:21.625Z,101153.05
2018-07-03T06:27:50.323Z,101151.68
2018-07-03T06:30:18.977Z,101146.23
2018-07-03T06:32:47.897Z,101143.59
2018-07-03T06:35:16.552Z,101142.20
2018-07-03T06:37:45.180Z,101146.19
2018-07-03T06:40:14.093Z,101145.47
2018-07-03T06:42:42.833Z,101145.19
2018-07-03T06:45:11.409Z,101146.49
2018-07-03T06:47:40.057Z,101151.14
2018-07-03T06:50:08.672Z,101148.68
2018-07-03T06:52:37.253Z,101155.80
2018-07-03T06:55:05.839Z,101157.34
2018-07-03T06:57:34.651Z,101151.95
2018-07-03T07:00:03.311Z,101152.72
2018-07-03T07:02:32.201Z,101159.38
2018-07-03T07:05:00.848Z,101156.13
2018-07-03T07:07:29.545Z,101156.56
2018-07-03T07:09:58.287Z,101155.45
2018-07-03T07:12:27.101Z,101161.23
2018-07-03T07:14:55.808Z,101155.51
2018-07-03T07:17:24.448Z,101153.94
2018-07-03T07:19:53.102Z,101161.19
2018-07-03T07:22:27.941Z,101149.38
2018-07-03T07:24:56.686Z,101156.25
2018-07-03T07:27:25.419Z,101160.51
2018-07-03T07:29:54.075Z,101159.16
2018-07-03T07:32:22.831Z,101157.92
2018-07-03T07:34:51.506Z,101155.17
2018-07-03T07:37:20.361Z,101165.11
2018-07-03T07:39:49.100Z,101158.09
2018-07-03T07:42:17.728Z,101160.92
2018-07-03T07:44:46.510Z,101158.96
2018-07-03T07:47:15.184Z,101150.20
2018-07-03T07:49:43.980Z,101153.05
2018-07-03T07:52:12.725Z,101151.08
2018-07-03T07:54:42.076Z,101148.87
2018-07-03T07:57:10.727Z,101144.34
2018-07-03T07:59:39.387Z,101138.72
2018-07-03T08:02:08.330Z,101142.20
2018-07-03T08:04:36.999Z,101139.36
2018-07-03T08:07:05.911Z,101138.67
2018-07-03T08:09:34.510Z,101134.73
2018-07-03T08:12:03.285Z,101137.95
2018-07-03T08:14:31.924Z,101136.97
2018-07-03T08:17:00.515Z,101130.82
2018-07-03T08:19:29.080Z,101128.27
2018-07-03T08:21:57.767Z,101132.55
2018-07-03T08:24:26.590Z,101130.06
2018-07-03T08:26:55.343Z,101130.05
2018-07-03T08:29:24.128Z,101121.08
2018-07-03T08:31:52.807Z,101120.33
2018-07-03T08:34:21.432Z,101114.54
2018-07-03T08:36:50.106Z,101122.13
2018-07-03T08:39:18.819Z,101117.03
2018-07-03T08:41:47.527Z,101114.66
2018-07-03T08:44:16.195Z,101122.81
2018-07-03T08:46:44.839Z,101124.23
2018-07-03T08:49:13.487Z,101125.44
2018-07-03T08:51:42.164Z,101120.29
2018-07-03T08:59:06.215Z,101113.12
2018-07-03T09:01:34.943Z,101111.15
2018-07-03T09:04:03.611Z,101111.20
2018-07-03T09:06:32.389Z,101110.63
2018-07-03T09:09:01.046Z,101108.89
2018-07-03T09:11:29.688Z,101100.84
2018-07-03T09:13:58.319Z,101097.28
2018-07-03T09:16:26.977Z,101091.92
2018-07-03T09:18:55.638Z,101089.66
2018-07-03T09:21:24.249Z,101090.50
2018-07-03T09:23:52.962Z,101083.63
2018-07-03T09:26:21.621Z,101082.45
2018-07-03T09:28:50.336Z,101075.31
2018-07-03T09:31:19.005Z,101078.45
2018-07-03T09:33:47.786Z,101070.09
2018-07-03T09:36:16.418Z,100929.48
2018-07-03T09:38:45.114Z,101058.68
2018-07-03T09:41:13.868Z,101061.97
2018-07-03T09:43:42.444Z,101060.63
2018-07-03T09:46:11.163Z,101052.69
2018-07-03T09:48:39.892Z,101050.67
2018-07-03T09:51:08.494Z,101046.32
2018-07-03T09:53:37.157Z,101040.77
2018-07-03T09:56:05.909Z,101038.22
2018-07-03T09:58:34.673Z,101038.30
2018-07-03T10:01:08.616Z,101042.41
2018-07-03T10:03:37.351Z,101034.25
2018-07-03T10:06:05.989Z,101040.81
2018-07-03T10:08:34.669Z,101032.55
2018-07-03T10:11:03.252Z,101033.20
2018-07-03T10:13:32.229Z,101048.56
2018-07-03T10:16:00.875Z,101046.20
2018-07-03T10:18:29.523Z,101048.55
2018-07-03T10:20:58.184Z,101046.59
2018-07-03T10:23:27.033Z,101041.91
2018-07-03T10:25:55.923Z,101048.73
2018-07-03T10:28:24.534Z,101045.94
2018-07-03T10:30:53.312Z,101045.83
2018-07-03T10:33:21.966Z,101045.08
2018-07-03T10:35:50.600Z,101045.22
2018-07-03T10:38:19.389Z,101047.05
2018-07-03T10:40:48.423Z,101037.63
2018-07-03T10:43:17.079Z,101036.54
2018-07-03T10:45:45.687Z,101031.32
2018-07-03T10:48:15.491Z,101030.48
2018-07-03T10:50:44.095Z,101031.83
2018-07-03T10:53:12.729Z,101031.87
2018-07-03T10:55:41.387Z,101025.55
2018-07-03T10:58:10.005Z,101029.17
2018-07-03T11:00:38.678Z,101025.55
2018-07-03T11:03:07.335Z,101021.05
2018-07-03T11:05:36.076Z,101014.16
2018-07-03T11:08:04.754Z,101010.52
2018-07-03T11:10:33.460Z,101021.94
2018-07-03T11:13:02.065Z,101007.73
2018-07-03T11:15:30.797Z,101000.79
2018-07-03T11:17:59.695Z,100994.89
2018-07-03T11:20:28.531Z,100996.62
2018-07-03T11:22:57.136Z,100987.39
2018-07-03T11:25:25.743Z,100986.39
2018-07-03T11:27:54.435Z,100988.28
2018-07-03T11:30:23.039Z,100987.00
2018-07-03T11:32:51.640Z,100988.35
2018-07-03T11:35:20.239Z,100996.17
2018-07-03T11:37:48.972Z,100994.27
2018-07-03T11:40:17.641Z,100997.11
2018-07-03T11:42:46.436Z,100996.01
2018-07-03T11:45:15.086Z,100997.62
2018-07-03T11:47:43.781Z,100993.45
2018-07-03T11:50:19.022Z,100990.39
2018-07-03T11:52:47.889Z,100991.17
2018-07-03T11:55:16.569Z,100990.52
2018-07-03T11:57:45.348Z,100990.15
2018-07-03T12:00:14.433Z,100989.05
2018-07-03T12:02:43.036Z,100975.71
2018-07-03T12:05:11.705Z,100974.41
2018-07-03T12:07:40.414Z,100965.91
2018-07-03T12:10:09.385Z,100957.80
2018-07-03T12:12:38.051Z,100952.39
2018-07-03T12:15:06.769Z,100952.81
2018-07-03T12:17:35.567Z,100950.48
2018-07-03T12:20:04.952Z,100941.39
2018-07-03T12:22:33.620Z,100947.84
2018-07-03T12:25:02.181Z,100948.62
2018-07-03T12:27:30.870Z,100942.42
2018-07-03T12:29:59.458Z,100940.80
2018-07-03T12:32:28.089Z,100937.30
2018-07-03T12:34:56.748Z,100934.59
2018-07-03T12:37:25.433Z,100937.22
2018-07-03T12:39:53.974Z,100933.09
2018-07-03T12:42:22.627Z,100927.68
2018-07-03T12:44:51.959Z,100921.84
2018-07-03T12:47:20.603Z,100914.87
2018-07-03T12:49:49.296Z,100917.56
2018-07-03T12:52:17.868Z,100914.59
2018-07-03T12:54:46.580Z,100914.77
2018-07-03T12:57:15.219Z,100904.70
2018-07-03T12:59:43.911Z,100903.66
2018-07-03T13:02:12.797Z,100901.87
2018-07-03T13:04:41.509Z,100904.80
2018-07-03T13:07:10.241Z,100899.20
2018-07-03T13:09:38.907Z,100899.23
2018-07-03T13:12:07.593Z,100898.08
2018-07-03T13:14:36.310Z,100900.56
2018-07-03T13:17:05.276Z,100900.41
2018-07-03T13:19:33.958Z,100898.80
2018-07-03T13:22:02.758Z,100896.23
2018-07-03T13:24:31.548Z,100889.02
2018-07-03T13:27:00.165Z,100889.99
2018-07-03T13:29:28.940Z,100894.64
2018-07-03T13:31:57.572Z,100880.16
2018-07-03T13:34:26.254Z,100886.59
2018-07-03T13:36:54.829Z,100887.60
2018-07-03T13:39:23.574Z,100881.91
2018-07-03T13:41:52.181Z,100880.38
2018-07-03T13:44:20.852Z,100879.80
2018-07-03T13:46:49.738Z,100872.52
2018-07-03T13:49:18.403Z,100867.98
2018-07-03T13:51:47.204Z,100858.30
2018-07-03T13:54:15.916Z,100860.73
2018-07-03T13:56:44.497Z,100858.75
2018-07-03T13:59:13.161Z,100856.48
2018-07-03T14:01:41.808Z,100846.38
2018-07-03T14:04:10.458Z,100855.12
2018-07-03T14:06:39.141Z,100847.88
2018-07-03T14:09:08.566Z,100851.97
2018-07-03T14:11:37.183Z,100855.60
2018-07-03T14:14:05.897Z,100846.98
2018-07-03T14:16:34.628Z,100844.42
2018-07-03T14:19:03.284Z,100845.62
2018-07-03T14:21:31.894Z,100841.72
2018-07-03T14:24:00.582Z,100847.03
2018-07-03T14:26:29.332Z,100837.09
2018-07-03T14:28:58.013Z,100841.70
2018-07-03T14:31:26.624Z,100841.77
2018-07-03T14:33:55.223Z,100836.55
2018-07-03T14:36:23.966Z,100835.56
2018-07-03T14:38:52.887Z,100833.59
2018-07-03T14:41:21.526Z,100832.91
2018-07-03T14:43:50.196Z,100830.11
2018-07-03T14:46:18.998Z,100829.08
2018-07-03T14:48:47.562Z,100829.09
2018-07-03T14:51:16.325Z,100829.94
2018-07-03T14:53:44.992Z,100831.12
2018-07-03T14:56:13.654Z,100828.30
2018-07-03T14:58:42.300Z,100829.19
2018-07-03T15:01:11.010Z,100823.10
2018-07-03T15:03:39.646Z,100823.29
2018-07-03T15:06:08.330Z,100819.44
2018-07-03T15:08:36.995Z,100823.22
2018-07-03T15:11:05.574Z,100821.70
2018-07-03T15:13:34.330Z,100817.38
2018-07-03T15:16:02.916Z,100812.80
2018-07-03T15:18:36.593Z,100823.17
2018-07-03T15:21:05.289Z,100818.72
2018-07-03T15:23:34.139Z,100812.95
2018-07-03T15:26:02.831Z,100814.40
2018-07-03T15:28:31.523Z,100807.55
2018-07-03T15:31:00.112Z,100809.37
2018-07-03T15:33:28.874Z,100808.12
2018-07-03T15:35:57.518Z,100807.38
2018-07-03T15:38:26.116Z,100792.13
2018-07-03T15:40:54.764Z,100796.19
2018-07-03T15:43:23.493Z,100796.69
2018-07-03T15:45:52.203Z,100791.36
2018-07-03T15:48:20.893Z,100785.52
2018-07-03T15:50:49.562Z,100784.97
2018-07-03T15:53:18.195Z,100784.73
2018-07-03T15:55:46.832Z,100793.42
2018-07-03T15:58:15.498Z,100788.84
2018-07-03T16:00:44.309Z,100786.53
2018-07-03T16:03:23.964Z,100788.66
2018-07-03T16:08:03.680Z,100787.77
2018-07-03T16:10:32.400Z,100786.71
2018-07-03T16:13:00.994Z,100786.28
2018-07-03T16:15:30.293Z,100791.75
2018-07-03T16:17:59.032Z,100778.31
2018-07-03T16:20:32.983Z,100780.78
2018-07-03T16:23:01.895Z,100777.25
2018-07-03T16:25:30.743Z,100779.20
2018-07-03T16:27:59.338Z,100782.68
2018-07-03T16:30:28.012Z,100780.47
2018-07-03T16:32:56.694Z,100770.33
2018-07-03T16:35:25.327Z,100778.23
2018-07-03T16:37:54.068Z,100776.47
2018-07-03T16:40:22.788Z,100773.95
2018-07-03T16:42:51.559Z,100772.09
2018-07-03T16:45:20.166Z,100764.68
2018-07-03T16:47:48.831Z,100769.47
2018-07-03T16:50:17.782Z,100755.66
2018-07-03T16:52:46.460Z,100762.56
2018-07-03T16:55:15.200Z,100760.02
2018-07-03T16:57:43.887Z,100756.56
2018-07-03T17:00:14.636Z,100759.37
2018-07-03T17:02:43.309Z,100764.50
2018-07-03T17:05:11.970Z,100765.20
2018-07-03T17:07:40.590Z,100766.96
2018-07-03T17:10:09.515Z,100773.46
2018-07-03T17:12:38.185Z,100778.91
2018-07-03T17:15:06.994Z,100777.23
2018-07-03T17:17:35.945Z,100775.76
2018-07-03T17:20:05.037Z,100774.94
2018-07-03T17:22:33.866Z,100771.95
2018-07-03T17:25:02.609Z,100778.52
2018-07-03T17:27:31.554Z,100783.17
2018-07-03T17:31:02.866Z,100780.98
2018-07-03T17:33:31.749Z,100782.55
2018-07-03T17:36:01.321Z,100781.53
2018-07-03T17:38:30.036Z,100785.06
2018-07-03T17:41:09.757Z,100790.63
2018-07-03T17:44:18.358Z,100793.69
2018-07-03T17:46:47.318Z,100795.52
2018-07-03T17:49:16.087Z,100790.02
2018-07-03T17:51:44.806Z,100789.93
2018-07-03T17:54:13.505Z,100791.95
2018-07-03T17:56:42.388Z,100789.94
2018-07-03T17:59:10.990Z,100788.12
2018-07-03T18:01:39.765Z,100791.14
2018-07-03T18:04:08.407Z,100784.42
2018-07-03T18:06:37.050Z,100788.32
2018-07-03T18:09:08.945Z,100785.47
2018-07-03T18:11:37.648Z,100775.22
2018-07-03T18:14:06.927Z,100776.09
2018-07-03T18:16:35.650Z,100770.61
2018-07-03T18:19:09.373Z,100771.11
2018-07-03T18:21:38.145Z,100770.44
2018-07-03T18:24:06.988Z,100778.00
2018-07-03T18:26:35.772Z,100777.69
2018-07-03T18:29:04.532Z,100779.34
2018-07-03T18:31:33.216Z,100783.10
2018-07-03T18:34:01.931Z,100784.45
2018-07-03T18:36:30.611Z,100774.55
2018-07-03T18:38:59.295Z,100773.57
2018-07-03T18:41:27.862Z,100778.60
2018-07-03T18:43:56.512Z,100773.03
2018-07-03T18:46:25.189Z,100775.72
2018-07-03T18:48:54.220Z,100774.73
2018-07-03T18:51:22.936Z,100773.89
2018-07-03T18:53:51.620Z,100774.59
2018-07-03T18:56:20.450Z,100774.25
2018-07-03T18:58:49.071Z,100786.00
2018-07-03T19:01:17.713Z,100785.98
2018-07-03T19:03:46.464Z,100785.16
2018-07-03T19:06:17.957Z,100784.99
2018-07-03T19:08:46.635Z,100789.53
2018-07-03T19:11:15.495Z,100790.84
2018-07-03T19:13:44.069Z,100792.70
2018-07-03T19:16:12.690Z,100795.20
2018-07-03T19:18:41.608Z,100797.70
2018-07-03T19:21:10.270Z,100800.70
2018-07-03T19:23:39.043Z,100802.83
2018-07-03T19:26:08.027Z,100801.62
2018-07-03T19:28:37.792Z,100792.09
2018-07-03T19:31:06.577Z,100793.41
2018-07-03T19:33:35.238Z,100793.91
2018-07-03T19:36:03.920Z,100800.77
2018-07-03T19:38:32.727Z,100797.87
2018-07-03T19:41:01.364Z,100785.47
2018-07-03T19:43:37.197Z,100782.95
2018-07-03T19:46:06.451Z,100784.78
2018-07-03T19:48:35.047Z,100785.09
2018-07-03T19:51:03.890Z,100787.45
2018-07-03T19:53:33.389Z,100774.69
2018-07-03T19:56:02.840Z,100773.16
2018-07-03T19:58:31.428Z,100767.95
2018-07-03T20:01:00.139Z,100772.61
2018-07-03T20:03:29.406Z,100774.90
2018-07-03T20:05:58.040Z,100779.48
2018-07-03T20:08:26.795Z,100773.13
2018-07-03T20:10:55.740Z,100783.14
2018-07-03T20:13:24.590Z,100777.08
2018-07-03T20:15:53.281Z,100784.86
2018-07-03T20:18:21.957Z,100783.82
2018-07-03T20:20:50.653Z,100784.16
2018-07-03T20:23:19.311Z,100780.78
2018-07-03T20:25:47.992Z,100776.77
2018-07-03T20:28:16.683Z,100781.56
2018-07-03T20:30:45.356Z,100786.41
2018-07-03T20:33:14.115Z,100777.84
2018-07-03T20:35:42.832Z,100780.30
2018-07-03T20:38:11.421Z,100782.27
2018-07-03T20:41:02.615Z,100785.92
2018-07-03T20:43:32.663Z,100783.72
2018-07-03T20:46:01.507Z,100781.71
2018-07-03T20:48:30.149Z,100780.35
2018-07-03T20:50:59.242Z,100780.30
2018-07-03T20:53:27.878Z,100778.73
2018-07-03T20:55:56.655Z,100773.72
2018-07-03T20:58:25.418Z,100772.55
2018-07-03T21:00:54.374Z,100767.20
2018-07-03T21:03:23.060Z,100763.38
2018-07-03T21:05:51.833Z,100769.23
2018-07-03T21:08:20.436Z,100762.70
2018-07-03T21:10:49.320Z,100765.38
2018-07-03T21:13:18.043Z,100772.45
2018-07-03T21:15:46.897Z,100775.00
2018-07-03T21:18:15.667Z,100775.00
2018-07-03T21:20:44.361Z,100778.19
2018-07-03T21:23:12.997Z,100783.72
2018-07-03T21:25:41.744Z,100788.72
2018-07-03T21:28:10.513Z,100785.90
2018-07-03T21:30:39.315Z,100781.71
2018-07-03T21:33:08.005Z,100787.27
2018-07-03T21:35:36.695Z,100785.14
2018-07-03T21:38:05.430Z,100792.20
2018-07-03T21:40:34.184Z,100789.67
2018-07-03T21:43:02.938Z,100787.55
2018-07-03T21:45:31.669Z,100791.91
2018-07-03T21:48:00.411Z,100797.70
2018-07-03T21:50:29.309Z,100792.03
2018-07-03T21:52:58.295Z,100790.02
2018-07-03T21:55:27.417Z,100788.02
2018-07-03T21:57:56.127Z,100790.00
2018-07-03T22:00:41.749Z,100789.95
2018-07-03T22:03:11.617Z,100788.59
2018-07-03T22:05:41.072Z,100793.94
2018-07-03T22:08:09.776Z,100791.55
2018-07-03T22:10:38.586Z,100790.28
2018-07-03T22:13:07.297Z,100792.87
2018-07-03T22:15:36.016Z,100792.11
2018-07-03T22:18:04.746Z,100797.44
2018-07-03T22:20:33.512Z,100797.73
2018-07-03T22:23:02.256Z,100793.55
2018-07-03T22:25:30.903Z,100798.30
2018-07-03T22:27:59.633Z,100799.91
2018-07-03T22:30:28.292Z,100795.45
2018-07-03T22:32:57.314Z,100802.27
2018-07-03T22:35:26.317Z,100808.42
2018-07-03T22:37:55.157Z,100803.30
2018-07-03T22:40:23.809Z,100805.24
2018-07-03T22:42:52.443Z,100799.97
2018-07-03T22:45:21.134Z,100802.43
2018-07-03T22:47:49.827Z,100800.11
2018-07-03T22:50:18.476Z,100806.72
2018-07-03T22:52:47.112Z,100806.54
2018-07-03T22:55:15.724Z,100800.15
2018-07-03T22:57:44.501Z,100801.44
2018-07-03T23:00:13.144Z,100805.20
2018-07-03T23:02:41.930Z,100803.53
2018-07-03T23:05:10.591Z,100805.47
2018-07-03T23:07:39.260Z,100804.80
2018-07-03T23:10:07.884Z,100807.04
2018-07-03T23:12:36.629Z,100802.42
2018-07-03T23:15:05.297Z,100802.16
2018-07-03T23:17:34.140Z,100807.85
2018-07-03T23:20:02.825Z,100797.67
2018-07-03T23:22:31.500Z,100803.59
2018-07-03T23:25:00.228Z,100803.87
2018-07-03T23:27:28.933Z,100802.13
2018-07-03T23:29:57.607Z,100802.22
2018-07-03T23:32:26.328Z,100812.67
2018-07-03T23:34:55.087Z,100812.84
2018-07-03T23:37:23.839Z,100810.80
2018-07-03T23:39:52.433Z,100812.97
2018-07-03T23:42:21.095Z,100814.39
2018-07-03T23:44:49.742Z,100805.68
2018-07-03T23:47:29.434Z,100815.80
2018-07-03T23:50:09.158Z,100811.39
2018-07-03T23:52:48.730Z,100805.28
2018-07-03T23:55:28.370Z,100806.26
2018-07-03T23:58:08.073Z,100805.55
